Weather observations for the past three days for
Minneapolis - Flying Cloud Airport
Imperial (Metric)
Date Time (cdt) Wind (mph) Vis. (mi.) Weather Sky Cond. Temperature (ºF) Relative Humidity Wind Chill (°F) Heat Index (°F) Pressure Precipitation (in)
Air Dwpt 6 hour altimeter (in) sea level (mb) 1 hr 3 hr 6 hr
Max. Min.
05 17:53 E 12 10.00 Fair CLR 84.9 66 53% 87 29.96 1014.0
05 16:53 E 13 10.00 Fair CLR 84 68 59% 87 29.96 1014.1
05 15:53 NE 15 10.00 Fair CLR 82.9 68 61% 86 29.96 1014.2
05 12:53 SE 6 10.00 Mostly Cloudy SCT016 BKN035 77 68 77 66.9 74% 79 30.04 1016.8
05 11:53 E 7 8.00 Overcast OVC012 73.9 68 82% 30.06 1017.4
05 10:53 N 6 4.00 Fog/Mist OVC009 71.1 68 90% 30.05 1017.3
05 09:53 NE 7 4.00 Fog/Mist OVC005 69.1 66.9 93% 30.04 1016.7
05 08:53 NE 7 1.50 Fog/Mist OVC004 69.1 68 96% 30.04 1016.7
05 07:53 Calm 1.25 Fog/Mist OVC003 68 66.9 96% 30.02 1015.9
05 06:53 NE 6 1.50 Fog/Mist OVC003 66.9 66 68 66 97% 30.01 1015.6
05 03:53 NE 7 8.00 Overcast OVC006 68 66 93% 29.98 1014.6
05 02:53 NE 9 9.00 Overcast OVC005 66.9 64.9 93% 29.98 1014.8
05 01:53 NE 7 10.00 Fair CLR 66 64 93% 29.99 1014.9
05 00:53 N 6 10.00 Fair CLR 68 64.9 82.9 68 90% 29.98 1014.6
04 22:53 NE 8 10.00 Fair CLR 72 64.9 79% 29.97 1014.1
04 21:53 NE 12 10.00 Fair CLR 75 66 74% 76 29.95 1013.6
04 20:53 N 9 10.00 Fair CLR 78.1 68 71% 80 29.93 1012.9
04 19:53 NE 3 10.00 Fair CLR 80.1 68 67% 83 29.92 1012.6
04 18:53 NE 7 10.00 Fair CLR 82.9 68 84.9 79 61% 86 29.91 1012.3
04 17:53 N 8 9.00 Fair CLR 84.9 70 61% 89 29.9 1012.0
04 16:53 N 9 10.00 Fair CLR 84.9 71.1 63% 90 29.89 1011.5
04 15:53 Vrbl 7 10.00 Fair CLR 82.9 71.1 67% 88 29.9 1011.7
04 14:53 NE 8 10.00 A Few Clouds FEW020 82.9 72 70% 88 29.9 1011.8
04 13:53 N 8 10.00 Mostly Cloudy BKN016 82 73 74% 87 29.9 1011.8
04 12:53 N 12 10.00 Partly Cloudy SCT015 80.1 72 82.9 72 76% 84 29.89 1011.7
04 11:53 N 10 7.00 Overcast OVC012 79 73 82% 82 29.88 1011.3
04 10:53 N 7 9.00 Fair CLR 82.9 73.9 74% 89 29.86 1010.6
04 09:53 Calm 10.00 Fair CLR 80.1 73 79% 84 29.85 1010.1
04 08:53 Calm 9.00 Fair CLR 78.1 72 82% 80 29.85 1010.1
04 07:53 Calm 7.00 Fair CLR 73.9 72 94% 29.84 1009.8
04 06:53 Calm 6.00 Fog/Mist CLR 71.1 71.1 77 71.1 100% 29.82 1009.3
04 05:53 Calm 9.00 Fair CLR 73 72 96% 29.81 1008.8
04 04:53 Calm 9.00 Fair CLR 73 72 96% 29.81 1008.7
04 03:53 SE 3 10.00 Fair CLR 75 72 90% 74 29.8 1008.3
04 02:53 S 3 10.00 Fair CLR 75 72 90% 74 29.79 1008.2
04 01:53 SE 5 10.00 A Few Clouds FEW110 75.9 72 88% 76 29.8 1008.3
04 00:53 SE 5 10.00 Partly Cloudy SCT120 75.9 72 84.9 75.9 88% 76 29.8 1008.4
03 23:53 S 6 10.00 Fair CLR 78.1 72 82% 80 29.79 1008.2
03 22:53 SE 5 10.00 A Few Clouds FEW120 77 71.1 82% 79 29.79 1008.2
03 21:53 SE 6 10.00 Partly Cloudy SCT120 80.1 71.1 74% 84 29.79 1008.2
03 20:53 SE 5 10.00 Fair CLR 80.1 71.1 74% 84 29.79 1008.0
03 19:53 SE 8 10.00 Fair CLR 81 70 69% 84 29.77 1007.5
03 18:53 S 12 10.00 Fair CLR 84.9 70 89.1 78.1 61% 89 29.77 1007.4 0.01
03 17:53 S 13 10.00 Fair CLR 87.1 68 53% 91 29.75 1006.6
03 16:53 S 14 G 24 10.00 Fair CLR 88 68 52% 92 29.76 1006.9
03 15:53 SE 16 10.00 Light Rain FEW047 FEW110 84.9 70 61% 89 29.76 1007.2 0.01
03 14:53 S 18 10.00 Thunderstorm in Vicinity CLR 88 66.9 50% 91 29.79 1008.0
03 13:53 E 9 10.00 Thunderstorm CLR 82.9 72 70% 88 29.8 1008.4 0.01
03 12:53 SE 8 10.00 Thunderstorm in Vicinity FEW042 SCT110 79 68 82 73.9 69% 81 29.81 1008.7
03 11:53 E 10 10.00 Fair CLR 79 68 69% 81 29.83 1009.6
03 10:53 SE 10 10.00 Fair CLR 80.1 66 62% 82 29.83 1009.4
03 09:53 SE 7 9.00 A Few Clouds FEW110 79 64.9 62% 81 29.83 1009.4
03 08:53 SE 7 10.00 Fair CLR 77 66 69% 79 29.83 1009.5
03 07:53 SE 6 10.00 Partly Cloudy SCT110 75 66.9 76% 76 29.82 1009.3
03 06:53 S 7 10.00 A Few Clouds FEW090 75 66.9 75 71.1 76% 76 29.82 1008.9
03 05:53 SE 5 10.00 Mostly Cloudy BKN055 BKN080 73 70 90% 29.82 1009.2
03 04:53 SE 5 10.00 Fair CLR 72 69.1 91% 29.83 1009.4
03 03:53 E 5 10.00 Fair CLR 73 69.1 87% 29.82 1008.9
03 02:53 E 7 10.00 Fair CLR 73.9 69.1 85% 29.83 1009.3
03 01:53 E 7 10.00 Fair CLR 73.9 69.1 85% 29.84 1009.7
03 00:53 NE 5 10.00 Fair CLR 75 70 86 75 84% 75 29.84 1010.0
02 23:53 E 6 10.00 Fair CLR 75.9 70 82% 77 29.84 1010.0
02 22:53 NE 6 10.00 Fair CLR 77 69.1 77% 79 29.85 1010.3
02 21:53 NE 5 10.00 Fair CLR 77 68 74% 79 29.85 1010.4
02 20:53 NE 3 10.00 Fair CLR 80.1 69.1 69% 83 29.85 1010.3
02 19:53 E 3 10.00 Fair CLR 81 66.9 62% 83 29.83 1009.7
02 18:53 SE 6 10.00 Fair CLR 86 66 88 80.1 51% 88 29.84 1009.8
Date Time (cdt) Wind (mph) Vis. (mi.) Weather Sky Cond. Air Dwpt Max. Min. Relative Humidity Wind Chill (°F) Heat Index (°F) altimeter (in) sea level (mb) 1 hr 3 hr 6 hr
6 hour
Temperature (ºF) Pressure Precipitation (in)